Meteo Giornale » Osservazioni meteo Stati Uniti (USA) » Aberdeen
ore: 11:53 - Osservazioni Meteo Aberdeen
Lat. 45° 26' N Lon. 98° 24' W Alt. 396 metri s.l.m.
24 °C
Sereno
Temp. 24 Ore
11 °C
31 °C
Ovest
9.3 Km/h
Dew point 11 °C
Umidità 43 %
Visibilità 10 Km
Il sole sorge alle ore 06:54
Il sole tramonta alle ore 20:13
| Data e Ora | Cielo e Fenomeni | T °C | DP °C | Um. % | Pres. hPa | Vis. km | Vento km/h | |
|---|---|---|---|---|---|---|---|---|
| Oggi h: 11:53 | Sereno | 24 | 11 | 43 | 1014 | 10 | O 9.3 | |
| Oggi h: 10:53 | Sereno | 21 | 13 | 60 | 1014 | 10 | O 14.8 | |
| Oggi h: 09:53 | Sereno | 18 | 14 | 77 | 1014 | 10 | O/SO 14.8 | |
| Oggi h: 08:53 | Sereno | 15 | 13 | 87 | 1013 | 10 | O/SO 13 | |
| Oggi h: 07:53 | Sereno | 13 | 12 | 93 | 1012 | 10 | SO 13 | |
| Oggi h: 06:53 | Sereno | 11 | 11 | 100 | 1011 | 10 | SO 9.3 | |
| Oggi h: 05:53 | Sereno | 14 | 12 | 87 | 1011 | 10 | N 7.4 | |
| Oggi h: 04:53 | Sereno | 15 | 13 | 87 | 1010 | 10 | NO 18.5 | |
| Oggi h: 03:53 | Sereno | 17 | 15 | 88 | 1010 | 10 | O/NO 13 | |
| Oggi h: 02:53 | Molto Nuvoloso | 17 | 16 | 93 | 1009 | 10 | NO 11.1 | |
| Oggi h: 01:53 | Pioggia | 19 | 17 | 88 | 1008 | 10 | N 13 | |
| Oggi h: 01:35 | Pioggia | 19 | 17 | 88 | 1009 | 14 | N 5.5 | |
| Oggi h: 01:20 | Temporale nelle vicinanze Pioggia | 19 | 17 | 88 | 1009 | 11 | O/NO 9.3 | |
| Oggi h: 00:53 | Nuvoloso | 19 | 17 | 88 | 1008 | 10 | N/NO 13 | |
| Ieri h: 23:53 | Sereno | 21 | 18 | 82 | 1008 | 10 | NO 29.6 | |
| Ieri h: 22:53 | Sereno | 22 | 21 | 94 | 1007 | 13 | NO 14.8 | |
| Ieri h: 21:53 | Sereno | 23 | 22 | 94 | 1006 | 14 | N 13 | |
| Ieri h: 20:53 | Sereno | 24 | 22 | 88 | 1005 | 10 | N 13 | |
| Ieri h: 19:53 | Sereno | 26 | 23 | 83 | 1004 | 10 | N 5.5 | |
| Ieri h: 18:53 | Sereno | 28 | 23 | 74 | 1005 | 10 | N 5.5 | |
| Ieri h: 17:53 | Sereno | 29 | 22 | 66 | 1005 | 10 | N 0 | |
| Ieri h: 16:53 | Nuvoloso | 31 | 21 | 55 | 1005 | 10 | O/SO 9.3 | |
| Ieri h: 15:53 | Poco Nuvoloso | 29 | 21 | 62 | 1005 | 10 | S/SO 11.1 | |
| Ieri h: 14:53 | Sereno | 28 | 22 | 69 | 1005 | 10 | N 5.5 | |
| Ieri h: 14:37 | Poco Nuvoloso | 29 | 22 | 66 | 1005 | 10 | N 0 | |
| Ieri h: 13:53 | Molto Nuvoloso | 27 | 22 | 74 | 1005 | 10 | N 0 | |
| Ieri h: 13:22 | Molto Nuvoloso | 27 | 22 | 74 | 1006 | 10 | N 9.3 | |
| Ieri h: 12:53 | Poco Nuvoloso | 26 | 22 | 78 | 1006 | 10 | NE 14.8 | |
| Ieri h: 12:44 | Nuvoloso | 26 | 22 | 78 | 1006 | 10 | NE 13 | |



